Terminal Aerodrome Forecast
Issued by NWS

Home | Current Version | Previous Version | Text Only | Print | Product List | Glossary On
Versions: 1 2 3 4 5 6 7 8 9 10 11 12 13 14 15 16 17 18 19
041
FTUS46 KLOX 250533
TAFPRB
TAF
KPRB 250533Z 2506/2606 VRB03KT P6SM SKC
     FM251700 34007KT P6SM BKN150
     FM252300 28008KT P6SM OVC150
     FM260400 VRB03KT P6SM OVC080=

USA.gov is the U.S. government's official web portal to all federal, state and local government web resources and services.